Time;durP1;ratioP1;P1;durP2;ratioP2;P2;SDS_P1;SDS_P2;PMS_P1;PMS_P2;Temp;Humidity;BMP_temperature;BMP_pressure;BME280_temperature;BME280_humidity;BME280_pressure;Samples;Min_cycle;Max_cycle;Signal;HPM_P1;HPM_P2
2023/01/10 00:01:35;;;;;;;26.42;12.60;;;;;;;4.62;89.73;94055.34;5023826;28;20442;-78
2023/01/10 00:04:01;;;;;;;25.13;12.98;;;;;;;4.60;89.45;94086.00;5026883;28;21001;-78
2023/01/10 00:06:26;;;;;;;30.05;13.48;;;;;;;4.72;89.66;94075.84;5013330;28;20418;-78
2023/01/10 00:08:52;;;;;;;23.60;13.50;;;;;;;4.59;89.60;94054.91;5025697;28;20444;-78
2023/01/10 00:14:01;;;;;;;22.70;12.60;;;;;;;4.44;90.31;94091.53;5013221;28;21278;-78
2023/01/10 00:16:27;;;;;;;23.98;12.70;;;;;;;4.49;90.65;94086.56;5030279;28;20421;-78
2023/01/10 00:18:52;;;;;;;29.23;12.38;;;;;;;4.47;90.94;94070.31;5014095;28;20414;-78
2023/01/10 00:21:17;;;;;;;23.90;11.57;;;;;;;4.55;90.69;94078.75;5026994;28;20404;-78
2023/01/10 00:23:43;;;;;;;23.57;11.33;;;;;;;4.51;90.09;94055.88;5030278;28;20176;-77
2023/01/10 00:26:09;;;;;;;21.97;10.47;;;;;;;4.55;89.77;94068.34;5030760;28;20483;-78
2023/01/10 00:28:37;;;;;;;26.93;12.50;;;;;;;4.36;90.73;94032.56;5016617;28;20446;-78
2023/01/10 00:31:07;;;;;;;23.50;13.02;;;;;;;4.55;90.15;94072.75;5009756;28;20427;-78
2023/01/10 00:33:35;;;;;;;21.75;12.32;;;;;;;4.23;90.89;94036.91;5003850;28;20426;-78
2023/01/10 00:36:03;;;;;;;23.17;12.70;;;;;;;4.53;90.89;94046.06;5010129;28;20422;-78
2023/01/10 00:38:29;;;;;;;23.17;11.55;;;;;;;4.33;90.61;94084.22;5011483;28;20437;-78
2023/01/10 00:40:55;;;;;;;22.33;11.27;;;;;;;4.32;91.39;94048.78;5010362;28;20457;-78
2023/01/10 00:46:04;;;;;;;23.35;12.90;;;;;;;4.16;92.08;94003.81;5010001;28;20414;-79
2023/01/10 00:48:30;;;;;;;22.97;11.77;;;;;;;4.21;91.86;93964.19;5010023;28;20419;-79
2023/01/10 00:50:55;;;;;;;19.13;11.60;;;;;;;4.06;91.32;93989.56;5010004;28;20444;-78
2023/01/10 00:53:21;;;;;;;23.90;11.77;;;;;;;4.17;92.27;94023.66;5010251;28;20411;-79
2023/01/10 00:55:47;;;;;;;22.10;11.73;;;;;;;4.01;92.17;94055.19;5028950;28;20416;-78
2023/01/10 00:58:13;;;;;;;21.30;10.60;;;;;;;4.22;92.35;94027.50;5025642;28;20176;-78
2023/01/10 01:00:40;;;;;;;21.60;10.50;;;;;;;4.32;92.11;94030.56;5021482;28;20493;-78
2023/01/10 01:03:06;;;;;;;20.98;11.48;;;;;;;4.12;91.52;93997.41;5033792;28;20424;-78
2023/01/10 01:05:33;;;;;;;24.35;12.02;;;;;;;4.33;92.19;94019.91;5033527;28;20784;-79
2023/01/10 01:07:58;;;;;;;21.45;11.95;;;;;;;4.28;92.30;94008.47;5014372;28;20505;-78
2023/01/10 01:10:27;;;;;;;23.30;11.23;;;;;;;4.47;91.65;94015.59;5014568;28;20545;-78
2023/01/10 01:12:54;;;;;;;19.53;11.90;;;;;;;4.48;90.86;94040.66;5012364;28;20420;-78
2023/01/10 01:15:20;;;;;;;19.90;11.90;;;;;;;4.39;91.11;94031.38;5026974;28;20905;-78
2023/01/10 01:17:46;;;;;;;18.13;9.93;;;;;;;4.40;91.26;94012.16;5033900;28;20564;-78
2023/01/10 01:20:13;;;;;;;22.48;11.77;;;;;;;4.58;91.20;94027.25;5032545;28;20409;-78
2023/01/10 01:22:38;;;;;;;19.52;11.48;;;;;;;4.64;90.57;94027.28;5033249;28;20488;-78
2023/01/10 01:25:04;;;;;;;19.70;10.90;;;;;;;4.37;89.91;93995.09;5033845;28;20991;-78
2023/01/10 01:27:30;;;;;;;16.03;8.80;;;;;;;4.37;90.56;93981.28;5035158;28;20565;-78
2023/01/10 01:29:56;;;;;;;20.08;11.05;;;;;;;4.54;90.92;94011.19;5033349;28;20467;-77
2023/01/10 01:32:21;;;;;;;18.27;11.00;;;;;;;4.47;90.89;94007.78;5005078;28;20489;-78
2023/01/10 01:34:47;;;;;;;20.60;11.10;;;;;;;4.26;91.09;94026.09;5029185;28;20413;-79
2023/01/10 01:37:12;;;;;;;19.77;10.63;;;;;;;4.24;91.36;93979.41;5031729;28;20855;-78
2023/01/10 01:39:38;;;;;;;22.23;11.37;;;;;;;4.44;91.14;93989.91;5020702;28;20452;-78
2023/01/10 01:42:05;;;;;;;18.40;10.63;;;;;;;4.60;90.82;93984.34;5012866;28;20824;-78
2023/01/10 01:44:32;;;;;;;18.73;10.97;;;;;;;4.37;90.13;93963.03;5003923;28;20473;-78
2023/01/10 01:47:11;;;;;;;20.73;11.50;;;;;;;4.48;90.66;93993.75;5012473;28;20890;-79
2023/01/10 01:49:42;;;;;;;17.87;10.47;;;;;;;4.52;90.81;94002.78;5005205;28;20442;-78
2023/01/10 01:52:24;;;;;;;18.83;11.07;;;;;;;4.65;90.25;94015.06;5011510;28;20426;-78
2023/01/10 01:54:53;;;;;;;17.33;10.07;;;;;;;4.69;90.13;93998.00;5012971;28;20783;-78
2023/01/10 01:57:23;;;;;;;20.52;10.60;;;;;;;4.46;90.66;93996.53;5029524;28;20455;-79
2023/01/10 01:59:52;;;;;;;20.27;10.65;;;;;;;4.52;91.11;93977.53;5032613;28;20498;-78
2023/01/10 02:02:27;;;;;;;19.33;10.73;;;;;;;4.67;90.29;93966.94;5032708;28;20531;-78
2023/01/10 02:04:59;;;;;;;17.67;10.63;;;;;;;4.40;90.43;93902.75;5032554;28;20408;-78
2023/01/10 02:07:28;;;;;;;18.77;10.48;;;;;;;4.59;90.04;93959.28;5033610;28;20483;-78
2023/01/10 02:10:18;;;;;;;18.80;11.07;;;;;;;4.88;89.63;93992.06;5003565;28;20430;-78
2023/01/10 02:12:46;;;;;;;18.98;11.07;;;;;;;4.81;90.03;93984.22;5030759;28;20486;-78
2023/01/10 02:15:15;;;;;;;18.60;10.57;;;;;;;5.01;89.45;93979.06;5032415;28;20412;-78
2023/01/10 02:17:40;;;;;;;18.57;10.60;;;;;;;5.06;88.69;93971.44;5032096;28;20585;-79
2023/01/10 02:20:07;;;;;;;18.30;10.48;;;;;;;5.01;88.26;93936.53;5032082;28;20936;-78
2023/01/10 02:22:58;;;;;;;17.05;10.07;;;;;;;5.12;88.00;93948.97;5032039;28;20408;-79
2023/01/10 02:25:39;;;;;;;16.97;9.07;;;;;;;5.04;88.30;93952.56;4995052;28;20554;-79
2023/01/10 02:28:34;;;;;;;17.45;9.32;;;;;;;4.62;88.02;93875.53;5005508;28;20787;-79
2023/01/10 02:31:37;;;;;;;18.48;10.32;;;;;;;5.08;88.40;93937.34;5022785;28;20967;-79
2023/01/10 02:34:37;;;;;;;17.92;10.13;;;;;;;4.83;89.17;93931.91;5001264;28;20426;-79
2023/01/10 02:37:05;;;;;;;20.02;10.85;;;;;;;4.80;89.57;93961.75;5028641;28;20425;-80
2023/01/10 02:39:47;;;;;;;16.55;9.18;;;;;;;4.56;89.52;93918.00;5012414;28;20864;-80
2023/01/10 02:42:22;;;;;;;16.88;9.82;;;;;;;4.85;89.78;93937.69;5032056;28;20899;-79
2023/01/10 02:45:03;;;;;;;16.77;9.98;;;;;;;4.82;89.47;93959.78;5032581;28;20912;-79
2023/01/10 02:47:39;;;;;;;19.58;10.70;;;;;;;4.90;89.52;93930.91;5006093;28;20505;-79
2023/01/10 02:50:26;;;;;;;15.87;9.47;;;;;;;4.90;89.17;93946.53;5011892;28;20438;-79
2023/01/10 02:52:52;;;;;;;18.30;10.00;;;;;;;4.91;89.30;93963.00;5019328;28;20962;-79
2023/01/10 02:55:24;;;;;;;20.25;11.40;;;;;;;4.90;89.20;93951.75;5032741;28;20448;-79
2023/01/10 02:58:01;;;;;;;16.80;10.02;;;;;;;4.81;89.67;93962.56;5018250;28;20406;-79
2023/01/10 03:00:32;;;;;;;19.88;10.77;;;;;;;4.82;89.38;93958.97;5011760;28;20524;-79
2023/01/10 03:03:18;;;;;;;18.17;11.20;;;;;;;4.90;89.07;93970.00;5026955;28;20841;-79
2023/01/10 03:05:53;;;;;;;17.80;10.23;;;;;;;4.85;89.60;93975.00;5031988;28;20784;-79
2023/01/10 03:08:30;;;;;;;16.35;10.15;;;;;;;4.98;89.17;93976.03;5031542;28;20409;-79
2023/01/10 03:11:04;;;;;;;16.15;8.77;;;;;;;4.99;88.35;93970.63;5032823;28;20440;-79
2023/01/10 03:13:36;;;;;;;18.17;10.43;;;;;;;4.88;89.07;93964.19;5030004;28;20496;-79
2023/01/10 03:16:05;;;;;;;15.75;9.98;;;;;;;4.75;89.47;93958.97;5017889;28;20410;-79
2023/01/10 03:18:47;;;;;;;17.13;9.75;;;;;;;4.70;90.29;93969.16;5030104;28;20944;-80
2023/01/10 03:21:17;;;;;;;17.48;10.77;;;;;;;4.33;90.24;93907.91;5031330;28;20409;-79
2023/01/10 03:23:44;;;;;;;17.33;10.32;;;;;;;4.78;89.59;93960.34;5030330;28;20421;-79
2023/01/10 03:26:11;;;;;;;15.57;8.88;;;;;;;4.80;89.83;93982.63;5018615;28;20469;-79
2023/01/10 03:29:01;;;;;;;17.05;9.93;;;;;;;4.85;89.43;93971.59;5011330;28;20415;-79
2023/01/10 03:31:38;;;;;;;18.67;10.90;;;;;;;4.91;89.03;93969.00;5029043;28;20223;-79
2023/01/10 03:34:04;;;;;;;18.10;10.43;;;;;;;4.57;88.99;93919.63;5004844;28;20442;-79
2023/01/10 03:36:30;;;;;;;17.83;9.70;;;;;;;4.83;89.18;93950.16;5012119;28;20410;-79
2023/01/10 03:38:56;;;;;;;17.23;9.67;;;;;;;5.04;88.89;93952.56;5014947;28;20441;-79
2023/01/10 03:41:37;;;;;;;16.90;9.73;;;;;;;4.68;88.59;93906.00;5029466;28;20428;-80
2023/01/10 03:47:11;;;;;;;15.10;9.73;;;;;;;5.13;87.92;93961.00;5010973;28;20426;-79
2023/01/10 03:49:40;;;;;;;12.87;8.00;;;;;;;4.79;87.93;93913.22;5012968;28;20204;-79
2023/01/10 03:52:08;;;;;;;11.97;7.10;;;;;;;5.12;88.25;93962.00;5022179;28;20193;-79
2023/01/10 03:54:33;;;;;;;18.15;8.90;;;;;;;5.21;87.33;93947.75;5031091;28;20421;-79
2023/01/10 03:56:59;;;;;;;15.55;9.10;;;;;;;5.13;88.05;93919.28;5029871;28;20416;-78
2023/01/10 03:59:26;;;;;;;16.40;10.23;;;;;;;5.12;88.45;93912.44;5030484;28;20428;-78
2023/01/10 04:01:53;;;;;;;15.43;9.73;;;;;;;4.91;87.72;93849.09;5014689;28;20788;-79
2023/01/10 04:04:18;;;;;;;15.02;9.32;;;;;;;5.20;86.89;93878.34;5030419;28;20421;-79
2023/01/10 04:06:44;;;;;;;15.67;9.43;;;;;;;5.32;86.74;93887.16;5016691;28;20484;-79
2023/01/10 04:09:10;;;;;;;16.65;10.35;;;;;;;5.18;86.86;93878.56;5018131;28;20457;-80
2023/01/10 04:11:35;;;;;;;15.27;9.85;;;;;;;5.07;87.41;93867.94;5018134;28;20473;-79
2023/01/10 04:14:02;;;;;;;16.45;10.10;;;;;;;4.94;88.12;93874.72;5010346;28;20450;-79
2023/01/10 04:16:28;;;;;;;16.65;9.80;;;;;;;5.02;88.25;93875.53;5021109;28;20418;-80
2023/01/10 04:18:53;;;;;;;16.98;10.38;;;;;;;4.85;88.56;93870.72;5021383;28;20413;-79
2023/01/10 04:21:19;;;;;;;17.52;10.25;;;;;;;4.72;89.21;93895.97;5010897;28;20438;-79
2023/01/10 04:23:44;;;;;;;16.90;9.63;;;;;;;4.62;89.34;93888.56;5012693;28;20496;-80
2023/01/10 04:26:10;;;;;;;17.40;10.47;;;;;;;4.74;89.53;93930.47;5028390;28;20447;-77
2023/01/10 04:28:35;;;;;;;14.23;8.30;;;;;;;4.70;89.98;93940.47;5018998;28;20287;-78
2023/01/10 04:31:01;;;;;;;15.27;8.83;;;;;;;4.81;89.94;93949.53;5020640;28;20204;-78
2023/01/10 04:33:27;;;;;;;17.17;8.67;;;;;;;5.05;89.01;93964.59;5015705;28;20180;-79
2023/01/10 04:35:53;;;;;;;15.20;8.80;;;;;;;5.03;88.48;93965.81;5021562;28;20259;-78
2023/01/10 04:38:19;;;;;;;16.43;9.80;;;;;;;4.96;88.62;93981.44;4996583;28;20600;-78
2023/01/10 04:40:50;;;;;;;19.65;11.32;;;;;;;4.56;89.18;93910.19;5004110;28;20538;-78
2023/01/10 04:43:16;;;;;;;16.27;9.07;;;;;;;4.74;89.34;93909.63;5007585;28;20197;-79
2023/01/10 04:45:42;;;;;;;17.00;9.73;;;;;;;5.15;88.43;93949.38;5010900;28;20434;-78
2023/01/10 04:48:07;;;;;;;17.47;8.60;;;;;;;5.31;87.37;93942.94;5017422;28;21719;-78
2023/01/10 04:50:33;;;;;;;16.03;8.23;;;;;;;5.37;87.11;93926.47;5015875;28;20188;-79
2023/01/10 04:52:58;;;;;;;18.07;9.93;;;;;;;5.14;86.68;93893.00;5020449;28;20474;-78
2023/01/10 04:55:23;;;;;;;16.00;8.53;;;;;;;5.43;86.54;93937.94;5031905;28;20172;-79
2023/01/10 04:57:49;;;;;;;18.83;8.57;;;;;;;5.26;85.92;93924.50;5023197;28;20959;-78
2023/01/10 05:00:15;;;;;;;17.43;10.10;;;;;;;5.36;86.54;93942.38;5031385;28;20298;-79
2023/01/10 05:02:42;;;;;;;18.17;10.50;;;;;;;5.25;86.85;93912.47;5029222;28;20429;-78
2023/01/10 05:05:12;;;;;;;16.73;9.03;;;;;;;5.40;86.20;93936.53;5013651;28;20191;-78
2023/01/10 05:07:37;;;;;;;20.05;9.95;;;;;;;5.20;86.04;93910.44;5006711;28;21254;-78
2023/01/10 05:10:05;;;;;;;16.73;9.07;;;;;;;5.37;86.01;93931.69;5024184;28;20211;-79
2023/01/10 05:12:30;;;;;;;19.63;9.37;;;;;;;5.27;86.36;93929.53;5031301;28;20191;-79
2023/01/10 05:14:55;;;;;;;19.33;9.03;;;;;;;5.25;86.86;93920.28;5028083;28;20175;-79
2023/01/10 05:17:21;;;;;;;16.53;10.00;;;;;;;4.90;86.70;93847.47;5028927;28;20409;-78
2023/01/10 05:19:46;;;;;;;17.60;9.40;;;;;;;5.27;86.53;93905.25;5024312;28;20180;-79
2023/01/10 05:22:12;;;;;;;18.77;10.15;;;;;;;5.24;86.16;93876.94;5026058;28;20888;-79
2023/01/10 05:24:37;;;;;;;15.10;8.87;;;;;;;5.32;86.39;93895.00;5011329;28;20321;-81
2023/01/10 05:27:02;;;;;;;15.93;10.10;;;;;;;5.30;86.90;93899.59;5017206;28;20180;-79
2023/01/10 05:29:28;;;;;;;16.97;8.70;;;;;;;5.38;86.95;93898.59;5012343;28;20183;-79
2023/01/10 05:31:53;;;;;;;16.17;8.77;;;;;;;5.42;86.08;93898.00;5011200;28;20207;-77
2023/01/10 05:34:19;;;;;;;15.38;9.07;;;;;;;5.45;86.09;93909.84;5026687;28;20550;-78
2023/01/10 05:36:45;;;;;;;18.60;10.40;;;;;;;5.36;86.12;93919.69;5008852;28;20418;-78
2023/01/10 05:39:10;;;;;;;17.93;10.10;;;;;;;5.41;86.16;93927.69;5008843;28;20418;-78
2023/01/10 05:41:36;;;;;;;15.00;9.87;;;;;;;5.22;85.98;93934.53;5010596;28;20485;-78
2023/01/10 05:44:02;;;;;;;17.13;10.33;;;;;;;4.87;86.86;93907.03;5022363;28;20404;-79
2023/01/10 05:46:27;;;;;;;17.27;9.60;;;;;;;5.17;86.78;93933.53;5031599;28;20594;-78
2023/01/10 05:48:52;;;;;;;17.73;9.70;;;;;;;5.18;86.61;93914.28;5034750;28;20442;-79
2023/01/10 05:51:18;;;;;;;16.67;9.97;;;;;;;5.23;87.12;93924.91;5034180;28;20432;-78
2023/01/10 05:53:43;;;;;;;18.63;10.90;;;;;;;5.34;86.80;93916.47;5032542;28;20496;-78
2023/01/10 05:56:09;;;;;;;18.87;10.03;;;;;;;5.00;85.89;93848.88;5015090;28;20251;-79
2023/01/10 05:58:35;;;;;;;18.53;10.47;;;;;;;4.78;86.13;93823.00;5028508;28;20404;-78
2023/01/10 06:01:00;;;;;;;20.53;11.67;;;;;;;5.05;86.11;93867.31;5033318;28;20494;-78
2023/01/10 06:03:26;;;;;;;24.57;13.27;;;;;;;5.28;86.27;93919.88;5021538;28;20492;-78
2023/01/10 06:05:55;;;;;;;19.73;10.67;;;;;;;5.36;86.77;93932.72;5014468;28;20652;-79
2023/01/10 06:08:21;;;;;;;26.25;13.27;;;;;;;5.50;85.35;93899.59;5005418;28;20406;-78
2023/01/10 06:10:47;;;;;;;19.13;11.45;;;;;;;5.04;85.17;93839.63;5014282;28;20438;-79
2023/01/10 06:13:13;;;;;;;20.10;11.75;;;;;;;5.25;85.96;93897.63;5013070;28;20418;-78
2023/01/10 06:15:38;;;;;;;17.33;10.60;;;;;;;5.30;86.39;93936.94;5022738;28;20199;-78
2023/01/10 06:18:04;;;;;;;18.00;10.50;;;;;;;5.19;86.19;93897.63;5012374;28;20482;-78
2023/01/10 06:20:30;;;;;;;18.80;10.10;;;;;;;5.56;86.07;93935.31;5021484;28;20419;-78
2023/01/10 06:22:57;;;;;;;15.97;8.17;;;;;;;5.19;86.33;93874.16;5014373;28;20188;-78
2023/01/10 06:25:23;;;;;;;14.23;7.67;;;;;;;5.58;85.96;93938.53;5022600;28;20293;-78
2023/01/10 06:27:48;;;;;;;14.33;8.50;;;;;;;5.64;86.31;93941.13;5019351;28;20258;-78
2023/01/10 06:30:14;;;;;;;17.17;9.17;;;;;;;5.66;86.40;93936.50;5025807;28;20230;-78
2023/01/10 06:32:41;;;;;;;14.70;7.70;;;;;;;5.24;86.08;93850.84;5020348;28;20176;-78
2023/01/10 06:35:07;;;;;;;15.87;8.33;;;;;;;5.74;85.53;93929.47;5033894;28;20170;-78
2023/01/10 06:37:33;;;;;;;17.20;7.93;;;;;;;5.42;86.25;93874.50;5034108;28;20167;-78
2023/01/10 06:39:58;;;;;;;13.70;7.83;;;;;;;5.44;86.75;93879.53;5029000;28;20227;-78
2023/01/10 06:42:24;;;;;;;11.23;7.57;;;;;;;5.71;87.20;93916.84;5030462;28;20172;-78
2023/01/10 06:44:49;;;;;;;19.23;8.73;;;;;;;5.76;87.44;93925.66;5031178;28;20184;-78
2023/01/10 06:47:14;;;;;;;15.97;8.33;;;;;;;5.68;87.57;93923.25;5014215;28;20227;-78
2023/01/10 06:49:40;;;;;;;14.10;8.33;;;;;;;5.83;87.99;93929.03;5013894;28;20200;-78
2023/01/10 06:52:05;;;;;;;19.33;8.90;;;;;;;5.69;88.30;93902.16;5008152;28;20168;-78
2023/01/10 06:54:30;;;;;;;16.77;9.03;;;;;;;5.76;87.85;93902.16;5021923;28;20256;-78
2023/01/10 06:56:56;;;;;;;15.83;9.50;;;;;;;5.90;88.87;93927.25;5023051;28;20556;-78
2023/01/10 06:59:21;;;;;;;18.63;9.80;;;;;;;5.88;89.36;93899.75;5026740;28;20176;-78
2023/01/10 07:01:47;;;;;;;22.60;9.57;;;;;;;5.99;89.45;93918.19;5021111;28;20188;-78
2023/01/10 07:04:12;;;;;;;15.80;8.40;;;;;;;5.96;89.06;93905.53;5025220;28;20172;-78
2023/01/10 07:06:38;;;;;;;21.80;9.10;;;;;;;5.94;88.46;93901.53;5026409;28;20176;-79
2023/01/10 07:09:05;;;;;;;20.67;11.00;;;;;;;5.86;88.47;93889.47;5024401;28;20192;-79
2023/01/10 07:11:31;;;;;;;17.23;9.47;;;;;;;5.75;88.74;93884.88;5019771;28;20207;-79
2023/01/10 07:13:56;;;;;;;20.33;9.17;;;;;;;5.92;89.01;93895.69;5024882;28;20781;-79
2023/01/10 07:16:22;;;;;;;17.37;10.47;;;;;;;5.88;89.32;93886.69;5025758;28;20497;-77
2023/01/10 07:18:47;;;;;;;17.23;8.77;;;;;;;5.89;89.42;93890.88;5010350;28;20487;-76
2023/01/10 07:21:17;;;;;;;18.20;9.77;;;;;;;5.88;89.37;93889.31;5011549;28;20454;-76
2023/01/10 07:23:42;;;;;;;20.92;10.60;;;;;;;5.85;90.21;93877.41;5010962;28;20505;-77
2023/01/10 07:26:10;;;;;;;14.63;9.23;;;;;;;5.90;90.50;93890.69;5022147;28;20258;-75
2023/01/10 07:28:35;;;;;;;15.47;9.20;;;;;;;5.88;90.60;93881.47;5016361;28;20160;-76
2023/01/10 07:31:02;;;;;;;16.67;8.57;;;;;;;5.96;90.84;93902.13;5011915;28;20207;-77
2023/01/10 07:33:28;;;;;;;18.00;10.57;;;;;;;5.99;91.07;93891.25;5016775;28;20179;-77
2023/01/10 07:35:54;;;;;;;19.27;9.80;;;;;;;5.90;91.61;93864.56;5023841;28;20180;-78
2023/01/10 07:38:19;;;;;;;17.87;8.90;;;;;;;6.09;92.07;93883.78;5012286;28;20180;-76
2023/01/10 07:40:44;;;;;;;28.80;15.17;;;;;;;5.90;92.04;93848.91;5012321;28;20164;-77
2023/01/10 07:43:10;;;;;;;54.00;26.50;;;;;;;5.86;92.64;93836.44;5012014;28;20267;-77
2023/01/10 07:45:35;;;;;;;66.60;31.67;;;;;;;6.15;92.59;93882.16;5011713;28;20183;-77
2023/01/10 07:48:03;;;;;;;82.17;39.47;;;;;;;6.14;93.14;93878.72;5016125;28;20188;-77
2023/01/10 07:50:31;;;;;;;75.67;37.37;;;;;;;6.15;93.04;93882.16;5016964;28;20203;-77
2023/01/10 07:52:58;;;;;;;70.23;36.53;;;;;;;6.13;93.17;93881.56;5011439;28;20195;-77
2023/01/10 07:55:24;;;;;;;63.87;31.60;;;;;;;6.13;93.25;93878.97;5013835;28;20192;-77
2023/01/10 07:57:50;;;;;;;67.03;32.50;;;;;;;6.17;93.46;93880.94;5011822;28;20176;-77
2023/01/10 08:00:17;;;;;;;42.33;23.17;;;;;;;6.22;93.32;93872.50;5026109;28;20309;-78
2023/01/10 08:02:43;;;;;;;31.15;17.65;;;;;;;6.20;93.05;93875.31;5015352;28;20450;-77
2023/01/10 08:05:09;;;;;;;26.02;12.65;;;;;;;6.12;93.35;93856.44;5011200;28;20426;-76
2023/01/10 08:07:35;;;;;;;31.13;16.33;;;;;;;6.24;93.32;93868.63;5016077;28;20186;-76
2023/01/10 08:10:03;;;;;;;34.40;17.33;;;;;;;6.32;93.66;93868.41;5015477;28;20205;-76
2023/01/10 08:12:28;;;;;;;45.77;23.13;;;;;;;6.34;93.91;93861.16;5024020;28;20662;-76
2023/01/10 08:14:53;;;;;;;56.70;28.07;;;;;;;6.32;93.95;93863.16;5021573;28;20255;-77
2023/01/10 08:17:19;;;;;;;43.93;22.73;;;;;;;6.32;94.30;93863.16;5017087;28;20180;-77
2023/01/10 08:19:44;;;;;;;34.17;19.17;;;;;;;6.36;94.10;93858.34;5021575;28;20314;-77
2023/01/10 08:22:10;;;;;;;42.47;23.93;;;;;;;6.44;94.53;93863.31;5017405;28;20542;-76
2023/01/10 08:24:36;;;;;;;45.10;24.07;;;;;;;6.44;94.16;93864.13;5017689;28;20180;-77
2023/01/10 08:27:02;;;;;;;45.30;20.97;;;;;;;6.32;94.57;93839.66;5015568;28;20547;-76
2023/01/10 08:29:27;;;;;;;37.13;20.70;;;;;;;6.43;94.39;93844.22;5014920;28;20184;-76
2023/01/10 08:31:53;;;;;;;28.50;14.03;;;;;;;6.39;94.17;93814.31;5009995;28;20173;-76
2023/01/10 08:34:19;;;;;;;26.00;13.53;;;;;;;6.54;94.35;93836.72;5020344;28;20655;-76
2023/01/10 08:36:45;;;;;;;23.80;12.43;;;;;;;6.50;93.73;93825.88;5023835;28;20222;-75
2023/01/10 08:39:11;;;;;;;25.20;12.23;;;;;;;6.50;93.71;93833.72;5013880;28;20575;-75
2023/01/10 08:41:38;;;;;;;22.13;13.27;;;;;;;6.44;94.30;93814.47;5013626;28;20168;-77
2023/01/10 08:44:04;;;;;;;29.47;14.73;;;;;;;6.56;95.02;93821.63;5013496;28;20172;-76
2023/01/10 08:46:29;;;;;;;25.13;13.77;;;;;;;6.67;94.97;93829.56;5013527;28;20176;-75
2023/01/10 08:48:55;;;;;;;25.77;14.83;;;;;;;6.67;94.24;93815.69;5021066;28;20234;-76
2023/01/10 08:51:20;;;;;;;59.30;29.08;;;;;;;6.49;93.92;93799.97;5027208;28;20833;-75
2023/01/10 08:53:46;;;;;;;46.47;27.40;;;;;;;6.41;93.26;93829.75;5029857;28;20797;-76
2023/01/10 08:56:11;;;;;;;45.70;23.83;;;;;;;6.29;93.46;93819.19;5012387;28;20418;-75
2023/01/10 08:58:37;;;;;;;49.08;26.33;;;;;;;6.17;93.35;93818.22;5010323;28;21181;-76
2023/01/10 09:01:04;;;;;;;47.43;26.67;;;;;;;6.23;93.21;93830.44;5010066;28;20517;-75
2023/01/10 09:03:31;;;;;;;45.50;24.90;;;;;;;5.97;93.54;93820.13;5026275;28;20925;-76
2023/01/10 09:05:58;;;;;;;43.33;25.97;;;;;;;6.02;94.08;93822.94;5018347;28;20169;-76
2023/01/10 09:08:24;;;;;;;71.83;33.90;;;;;;;5.90;94.19;93791.44;5019456;28;20183;-76
2023/01/10 09:10:49;;;;;;;58.23;29.17;;;;;;;6.07;94.28;93812.66;5018723;28;20204;-76
2023/01/10 09:13:15;;;;;;;54.27;27.23;;;;;;;6.13;93.89;93811.03;5014720;28;20172;-76
2023/01/10 09:15:41;;;;;;;45.73;24.67;;;;;;;6.17;93.88;93818.22;5014328;28;20195;-76
2023/01/10 09:18:09;;;;;;;40.53;22.13;;;;;;;6.18;93.91;93814.63;5029788;28;20171;-76
2023/01/10 09:20:36;;;;;;;38.70;22.03;;;;;;;6.18;93.81;93813.81;5016521;28;20532;-77
2023/01/10 09:23:07;;;;;;;40.43;21.90;;;;;;;6.18;93.81;93804.16;5014044;28;20558;-77
2023/01/10 09:25:33;;;;;;;42.33;22.03;;;;;;;6.13;93.99;93795.38;5019835;28;20171;-76
2023/01/10 09:28:01;;;;;;;46.60;21.57;;;;;;;6.23;94.19;93812.16;5034469;28;20176;-76
2023/01/10 09:30:28;;;;;;;51.93;24.57;;;;;;;6.25;94.20;93810.16;5022165;28;20287;-76
2023/01/10 09:32:54;;;;;;;47.00;23.13;;;;;;;6.29;94.08;93813.16;5014727;28;20251;-76
2023/01/10 09:35:21;;;;;;;53.67;24.70;;;;;;;6.27;94.33;93805.53;5014770;28;20176;-77
2023/01/10 09:37:46;;;;;;;49.22;27.52;;;;;;;6.31;94.71;93803.31;5013848;28;20485;-77
2023/01/10 09:40:18;;;;;;;49.27;27.47;;;;;;;6.26;94.51;93785.63;5012263;28;20423;-76
2023/01/10 09:43:04;;;;;;;40.83;22.23;;;;;;;6.33;94.21;93781.16;5031244;28;20434;-77
2023/01/10 09:46:03;;;;;;;45.43;23.13;;;;;;;6.38;94.39;93775.31;5014865;28;20587;-76
2023/01/10 09:49:07;;;;;;;40.60;21.83;;;;;;;6.36;93.97;93772.91;5002600;28;20188;-76
2023/01/10 09:51:37;;;;;;;52.35;27.40;;;;;;;6.29;94.77;93769.53;5012632;28;20439;-76
2023/01/10 09:54:09;;;;;;;48.67;24.47;;;;;;;6.28;94.48;93780.19;5027536;28;20209;-77
2023/01/10 09:56:35;;;;;;;46.63;23.93;;;;;;;6.29;94.54;93761.69;5033974;28;20172;-77
2023/01/10 09:59:02;;;;;;;49.13;25.13;;;;;;;6.38;94.57;93772.69;5033245;28;20761;-77
2023/01/10 10:01:35;;;;;;;62.63;32.90;;;;;;;6.38;94.46;93757.81;5030196;28;20464;-76
2023/01/10 10:04:14;;;;;;;70.70;36.33;;;;;;;6.45;94.20;93763.00;5032975;28;20555;-77
2023/01/10 10:06:39;;;;;;;64.17;30.97;;;;;;;6.41;94.50;93759.19;5032940;28;20655;-77
2023/01/10 10:09:05;;;;;;;55.17;27.80;;;;;;;6.05;94.35;93694.53;5032908;28;20174;-76
2023/01/10 10:12:05;;;;;;;54.47;29.03;;;;;;;6.47;94.02;93754.94;5031304;28;20290;-76
2023/01/10 10:14:43;;;;;;;57.57;28.70;;;;;;;6.42;94.48;93755.56;5007655;28;20267;-76
2023/01/10 10:17:26;;;;;;;58.63;28.73;;;;;;;6.43;94.57;93759.78;5012783;28;20207;-76
2023/01/10 10:20:30;;;;;;;55.00;27.63;;;;;;;6.45;94.64;93752.53;5012938;28;20670;-77
2023/01/10 10:23:08;;;;;;;51.47;25.77;;;;;;;6.30;94.81;93738.97;5012888;28;20164;-77
2023/01/10 10:25:48;;;;;;;61.90;27.57;;;;;;;6.43;95.25;93752.75;5012872;28;20180;-76
2023/01/10 10:28:35;;;;;;;51.87;25.73;;;;;;;6.43;95.26;93746.72;5012960;28;20172;-76
2023/01/10 10:31:46;;;;;;;55.90;26.90;;;;;;;6.44;94.96;93740.47;5012960;28;20203;-76
2023/01/10 10:34:36;;;;;;;56.03;26.53;;;;;;;6.46;95.06;93740.25;4993004;28;20189;-76
2023/01/10 10:37:31;;;;;;;56.60;26.70;;;;;;;6.44;95.57;93740.47;5012673;28;20185;-76
2023/01/10 10:40:01;;;;;;;53.47;27.30;;;;;;;6.51;95.31;93736.00;5012738;28;20163;-76
2023/01/10 10:42:35;;;;;;;66.40;35.28;;;;;;;6.51;95.61;93727.34;5012254;28;20429;-76
2023/01/10 10:45:35;;;;;;;54.47;29.47;;;;;;;6.46;95.29;93724.59;5012639;28;20186;-76
2023/01/10 10:48:14;;;;;;;50.23;28.20;;;;;;;6.48;95.17;93722.56;5006782;28;20718;-76
2023/01/10 10:50:50;;;;;;;42.70;24.07;;;;;;;6.48;95.54;93718.13;5012160;28;20224;-76
2023/01/10 10:53:17;;;;;;;47.00;23.70;;;;;;;6.35;95.32;93694.72;5012675;28;20165;-77
2023/01/10 10:55:44;;;;;;;45.07;22.37;;;;;;;6.53;95.16;93713.06;5012892;28;20267;-76
2023/01/10 10:58:13;;;;;;;47.10;24.43;;;;;;;6.54;95.21;93716.47;5026954;28;20203;-77
2023/01/10 11:00:39;;;;;;;43.50;22.83;;;;;;;6.31;95.60;93685.72;5031556;28;20697;-77
2023/01/10 11:03:23;;;;;;;39.80;22.37;;;;;;;6.58;95.63;93725.47;5025769;28;20172;-77
2023/01/10 11:05:48;;;;;;;40.77;21.73;;;;;;;6.57;95.31;93732.53;5032650;28;20179;-77
2023/01/10 11:08:17;;;;;;;40.57;20.73;;;;;;;6.57;95.50;93721.28;5028063;28;20659;-77
2023/01/10 11:10:47;;;;;;;38.25;21.67;;;;;;;6.45;95.33;93697.66;5029253;28;21009;-78
2023/01/10 11:13:33;;;;;;;32.40;18.20;;;;;;;6.54;95.91;93708.63;5031002;28;20200;-77
2023/01/10 11:16:05;;;;;;;36.42;20.05;;;;;;;6.36;95.93;93676.22;5003195;28;20411;-77
2023/01/10 11:18:31;;;;;;;32.10;16.70;;;;;;;6.52;95.91;93693.16;5024132;28;20502;-77
2023/01/10 11:21:13;;;;;;;36.03;18.53;;;;;;;6.51;96.38;93694.16;5032418;28;20217;-76
2023/01/10 11:23:56;;;;;;;32.83;18.10;;;;;;;6.49;96.40;93690.19;5032295;28;20180;-76
2023/01/10 11:26:35;;;;;;;42.33;24.23;;;;;;;6.48;96.11;93684.16;5030649;28;20420;-76
2023/01/10 11:29:20;;;;;;;33.53;19.47;;;;;;;6.54;96.13;93698.97;5031904;28;20553;-76
2023/01/10 11:31:47;;;;;;;36.13;19.93;;;;;;;6.57;95.95;93698.56;5032092;28;20237;-76
2023/01/10 11:34:32;;;;;;;33.60;17.50;;;;;;;6.64;95.71;93698.50;5032087;28;20221;-76
2023/01/10 11:36:59;;;;;;;30.87;17.67;;;;;;;6.66;96.01;93694.63;5016649;28;20250;-76
2023/01/10 11:39:26;;;;;;;38.60;18.03;;;;;;;6.63;95.69;93697.69;5011806;28;20207;-76
2023/01/10 11:41:57;;;;;;;32.73;17.10;;;;;;;6.69;95.79;93686.38;5011700;28;20176;-76
2023/01/10 11:44:29;;;;;;;32.87;20.27;;;;;;;6.61;96.19;93693.69;5009720;28;20417;-76
2023/01/10 11:47:02;;;;;;;31.73;17.10;;;;;;;6.67;96.61;93690.19;5012050;28;20434;-76